Time;durP1;ratioP1;P1;durP2;ratioP2;P2;SDS_P1;SDS_P2;PMS_P1;PMS_P2;Temp;Humidity;BMP_temperature;BMP_pressure;BME280_temperature;BME280_humidity;BME280_pressure;Samples;Min_cycle;Max_cycle;Signal;HPM_P1;HPM_P2
2021/11/10 00:00:46;;;;;;;21.52;10.13;;;2.50;93.60;;;;;;5040437;28;20022;-67
2021/11/10 00:03:12;;;;;;;16.02;8.85;;;2.50;93.40;;;;;;5042005;28;20040;-67
2021/11/10 00:05:39;;;;;;;19.08;9.00;;;2.40;93.20;;;;;;5041615;28;20021;-67
2021/11/10 00:08:05;;;;;;;15.32;8.25;;;2.50;93.10;;;;;;5040651;28;20295;-67
2021/11/10 00:10:31;;;;;;;17.73;9.30;;;2.40;93.10;;;;;;5040157;28;20051;-67
2021/11/10 00:15:41;;;;;;;15.65;8.10;;;2.40;93.40;;;;;;5041687;28;20278;-67
2021/11/10 00:18:07;;;;;;;19.77;8.55;;;2.40;93.30;;;;;;5041747;28;20104;-67
2021/11/10 00:20:33;;;;;;;15.75;8.45;;;2.50;93.30;;;;;;5040476;28;20037;-67
2021/11/10 00:22:58;;;;;;;15.25;8.15;;;2.50;93.40;;;;;;5041747;28;20028;-67
2021/11/10 00:25:24;;;;;;;18.75;8.68;;;2.50;93.40;;;;;;5041552;28;20029;-67
2021/11/10 00:27:50;;;;;;;16.75;8.18;;;2.50;93.30;;;;;;5040157;28;20025;-67
2021/11/10 00:30:16;;;;;;;14.63;8.93;;;2.50;93.10;;;;;;5000886;28;20022;-67
2021/11/10 00:32:42;;;;;;;19.30;8.68;;;2.40;93.30;;;;;;5001904;28;20138;-67
2021/11/10 00:35:08;;;;;;;14.75;8.82;;;2.40;93.40;;;;;;5000967;28;20029;-66
2021/11/10 00:37:34;;;;;;;18.40;9.85;;;2.40;93.30;;;;;;5004229;28;20085;-67
2021/11/10 00:40:00;;;;;;;14.10;8.18;;;2.40;93.50;;;;;;5041581;28;20040;-67
2021/11/10 00:42:26;;;;;;;14.93;8.77;;;2.40;93.40;;;;;;5044601;28;20033;-67
2021/11/10 00:44:51;;;;;;;13.00;8.48;;;2.30;93.40;;;;;;5045212;28;20091;-67
2021/11/10 00:47:17;;;;;;;14.85;8.15;;;2.30;93.30;;;;;;5043732;28;20033;-67
2021/11/10 00:49:43;;;;;;;13.95;8.52;;;2.30;93.50;;;;;;5045182;28;20262;-67
2021/11/10 00:52:09;;;;;;;18.77;8.50;;;2.30;93.30;;;;;;5043227;28;20032;-67
2021/11/10 00:54:35;;;;;;;16.42;7.75;;;2.20;93.40;;;;;;5043883;28;20236;-67
2021/11/10 00:57:00;;;;;;;18.90;10.05;;;2.20;93.50;;;;;;5043825;28;20028;-66
2021/11/10 00:59:26;;;;;;;15.82;8.15;;;2.10;93.70;;;;;;5043503;28;20025;-67
2021/11/10 01:01:52;;;;;;;16.80;8.48;;;2.10;93.60;;;;;;5044628;28;20374;-67
2021/11/10 01:04:18;;;;;;;20.35;9.07;;;2.00;93.60;;;;;;5044614;28;20079;-68
2021/11/10 01:06:44;;;;;;;14.00;8.32;;;2.00;93.80;;;;;;5043841;28;20029;-67
2021/11/10 01:09:16;;;;;;;14.05;8.40;;;2.00;93.70;;;;;;5044681;28;20044;-67
2021/11/10 01:11:45;;;;;;;14.10;8.13;;;2.00;93.90;;;;;;5041813;28;20021;-67
2021/11/10 01:14:12;;;;;;;14.18;8.32;;;2.10;93.80;;;;;;5042685;28;20029;-68
2021/11/10 01:16:38;;;;;;;;;;;2.00;93.40;;;;;;5044788;28;20048;-67
2021/11/10 01:19:04;;;;;;;13.95;7.32;;;2.00;93.40;;;;;;5044546;28;19905;-67
2021/11/10 01:21:30;;;;;;;14.82;7.75;;;2.00;93.40;;;;;;5043217;28;20025;-67
2021/11/10 01:23:56;;;;;;;11.57;7.00;;;2.00;93.10;;;;;;5043346;28;20025;-67
2021/11/10 01:26:22;;;;;;;17.13;8.05;;;1.80;93.20;;;;;;5044873;28;20143;-67
2021/11/10 01:28:48;;;;;;;14.48;8.18;;;1.70;93.50;;;;;;5046493;28;20032;-67
2021/11/10 01:31:13;;;;;;;15.80;7.82;;;1.70;93.50;;;;;;5045464;28;20037;-67
2021/11/10 01:33:39;;;;;;;14.82;8.63;;;1.70;93.70;;;;;;5046150;28;20084;-68
2021/11/10 01:36:05;;;;;;;16.08;8.38;;;1.70;93.80;;;;;;5046221;28;20316;-68
2021/11/10 01:38:31;;;;;;;15.07;8.50;;;1.60;93.80;;;;;;5043162;28;20036;-68
2021/11/10 01:40:56;;;;;;;15.02;8.25;;;1.70;94.00;;;;;;5044125;28;20044;-68
2021/11/10 01:43:22;;;;;;;17.27;9.40;;;1.70;93.90;;;;;;5042977;28;20041;-68
2021/11/10 01:45:48;;;;;;;18.05;9.63;;;1.70;93.80;;;;;;5042994;28;20083;-67
2021/11/10 01:48:15;;;;;;;13.52;7.90;;;1.70;93.70;;;;;;5043895;28;20080;-67
2021/11/10 01:50:41;;;;;;;13.77;8.40;;;1.70;93.50;;;;;;5041521;28;20053;-68
2021/11/10 01:53:09;;;;;;;14.55;8.85;;;1.70;93.60;;;;;;5042392;28;20035;-68
2021/11/10 01:55:36;;;;;;;14.90;7.43;;;1.70;93.60;;;;;;5043979;28;20060;-68
2021/11/10 01:58:02;;;;;;;15.77;8.30;;;1.60;93.60;;;;;;5042554;28;20068;-68
2021/11/10 02:00:30;;;;;;;13.07;7.40;;;1.60;93.70;;;;;;5043717;28;20320;-68
2021/11/10 02:02:56;;;;;;;18.33;8.65;;;1.60;93.80;;;;;;5042935;28;20219;-68
2021/11/10 02:05:22;;;;;;;17.13;9.20;;;1.60;93.80;;;;;;5043784;28;20198;-67
2021/11/10 02:07:48;;;;;;;14.35;8.15;;;1.50;93.50;;;;;;5042145;28;20026;-68
2021/11/10 02:10:17;;;;;;;16.27;7.88;;;1.50;93.50;;;;;;5043170;28;20035;-68
2021/11/10 02:12:43;;;;;;;16.77;8.27;;;1.50;93.60;;;;;;5042865;28;20084;-68
2021/11/10 02:15:13;;;;;;;13.88;8.00;;;1.40;93.80;;;;;;5043086;28;20036;-68
2021/11/10 02:17:39;;;;;;;15.40;7.57;;;1.50;94.00;;;;;;5042319;28;20057;-68
2021/11/10 02:20:07;;;;;;;17.35;8.93;;;1.60;93.90;;;;;;5042210;28;20096;-67
2021/11/10 02:22:33;;;;;;;15.32;8.07;;;1.60;93.90;;;;;;5041748;28;20021;-68
2021/11/10 02:25:01;;;;;;;14.48;8.10;;;1.60;93.70;;;;;;5042368;28;20035;-67
2021/11/10 02:27:33;;;;;;;14.57;7.95;;;1.60;93.60;;;;;;5042070;28;20040;-67
2021/11/10 02:29:59;;;;;;;15.90;7.53;;;1.60;93.60;;;;;;5042329;28;20045;-67
2021/11/10 02:32:24;;;;;;;18.15;9.32;;;1.60;93.50;;;;;;5043347;28;20024;-68
2021/11/10 02:34:50;;;;;;;17.27;9.40;;;1.50;93.50;;;;;;5043181;28;20068;-67
2021/11/10 02:37:19;;;;;;;18.17;8.90;;;1.50;93.50;;;;;;5028058;22;20054;-68
2021/11/10 02:39:45;;;;;;;13.65;7.90;;;1.50;93.60;;;;;;5010621;28;20034;-67
2021/11/10 02:42:11;;;;;;;14.17;7.80;;;1.60;93.50;;;;;;5019124;28;20091;-68
2021/11/10 02:44:36;;;;;;;14.57;8.65;;;1.60;93.40;;;;;;4998487;28;20103;-67
2021/11/10 02:47:03;;;;;;;18.10;8.63;;;1.50;93.30;;;;;;4982792;28;20109;-67
2021/11/10 02:49:29;;;;;;;13.57;7.57;;;1.60;93.40;;;;;;4966286;28;20190;-68
2021/11/10 02:52:10;;;;;;;16.20;8.30;;;1.50;93.30;;;;;;4983508;28;20033;-67
2021/11/10 02:54:44;;;;;;;11.48;7.18;;;1.50;93.80;;;;;;4982343;28;20126;-68
2021/11/10 02:57:10;;;;;;;14.77;8.55;;;1.60;93.50;;;;;;4982741;28;20319;-68
2021/11/10 02:59:36;;;;;;;11.93;7.28;;;1.60;93.30;;;;;;4981991;28;20022;-68
2021/11/10 03:02:02;;;;;;;15.77;8.40;;;1.60;93.30;;;;;;4982405;28;20257;-68
2021/11/10 03:04:36;;;;;;;11.55;7.30;;;1.60;93.30;;;;;;4981862;28;20026;-68
2021/11/10 03:07:03;;;;;;;13.88;7.97;;;1.60;93.30;;;;;;4997861;28;20043;-68
2021/11/10 03:09:31;;;;;;;16.75;9.05;;;1.70;93.10;;;;;;4982021;28;20023;-68
2021/11/10 03:11:59;;;;;;;18.52;8.43;;;1.50;93.10;;;;;;4981432;28;20051;-68
2021/11/10 03:14:29;;;;;;;12.98;8.27;;;1.40;93.30;;;;;;4983633;28;20022;-68
2021/11/10 03:16:55;;;;;;;15.05;7.53;;;1.40;93.40;;;;;;4981914;28;20027;-68
2021/11/10 03:19:21;;;;;;;16.90;8.77;;;1.30;93.50;;;;;;4982171;28;20269;-68
2021/11/10 03:21:47;;;;;;;15.80;8.02;;;1.30;93.50;;;;;;4996956;28;20037;-68
2021/11/10 03:24:13;;;;;;;18.75;8.52;;;1.30;93.60;;;;;;5002885;28;20097;-68
2021/11/10 03:26:39;;;;;;;13.75;9.13;;;1.20;93.80;;;;;;5000953;28;20089;-68
2021/11/10 03:29:05;;;;;;;15.90;8.00;;;1.20;93.80;;;;;;5002733;28;20379;-68
2021/11/10 03:31:33;;;;;;;15.65;7.93;;;1.20;93.80;;;;;;5001759;28;20042;-68
2021/11/10 03:33:59;;;;;;;11.50;7.60;;;1.20;93.70;;;;;;4969756;28;20018;-68
2021/11/10 03:36:25;;;;;;;18.55;9.23;;;1.20;93.70;;;;;;5000832;28;20014;-68
2021/11/10 03:38:51;;;;;;;13.02;7.40;;;1.20;93.90;;;;;;5001461;28;20071;-68
2021/11/10 03:41:17;;;;;;;11.07;7.82;;;1.20;93.90;;;;;;5001612;28;20030;-68
2021/11/10 03:43:42;;;;;;;16.50;8.00;;;1.10;93.90;;;;;;5002669;28;20081;-68
2021/11/10 03:46:08;;;;;;;14.45;7.47;;;1.10;93.90;;;;;;5001850;28;20085;-68
2021/11/10 03:48:34;;;;;;;15.52;7.70;;;1.10;93.80;;;;;;5002501;28;20117;-68
2021/11/10 03:51:00;;;;;;;13.05;8.05;;;1.00;94.00;;;;;;5002309;28;20018;-68
2021/11/10 03:53:26;;;;;;;11.97;7.27;;;1.00;94.10;;;;;;4984591;28;20093;-68
2021/11/10 03:55:52;;;;;;;12.30;7.63;;;1.00;94.00;;;;;;5002570;28;20034;-68
2021/11/10 03:58:18;;;;;;;12.90;7.38;;;1.00;94.00;;;;;;5000610;28;20233;-68
2021/11/10 04:00:43;;;;;;;13.38;8.63;;;0.90;94.20;;;;;;5001128;28;20333;-68
2021/11/10 04:03:09;;;;;;;14.73;8.00;;;1.00;94.20;;;;;;5002495;28;20026;-68
2021/11/10 04:05:35;;;;;;;14.23;7.55;;;1.00;94.20;;;;;;5002474;28;20308;-68
2021/11/10 04:08:01;;;;;;;17.73;8.30;;;1.00;94.30;;;;;;5000674;28;20029;-68
2021/11/10 04:10:27;;;;;;;16.58;8.25;;;0.90;94.20;;;;;;5002236;28;20085;-68
2021/11/10 04:12:52;;;;;;;17.42;7.65;;;0.90;94.30;;;;;;5000496;28;20103;-68
2021/11/10 04:15:18;;;;;;;14.23;7.45;;;0.90;94.40;;;;;;5002523;28;20175;-68
2021/11/10 04:17:44;;;;;;;13.63;7.72;;;0.90;94.40;;;;;;5001381;28;20026;-68
2021/11/10 04:20:10;;;;;;;14.75;7.72;;;1.00;94.50;;;;;;4986741;28;20026;-68
2021/11/10 04:22:36;;;;;;;12.57;7.17;;;1.00;94.40;;;;;;4991102;28;20022;-68
2021/11/10 04:25:02;;;;;;;13.63;7.32;;;1.00;93.90;;;;;;5001832;28;20278;-68
2021/11/10 04:27:28;;;;;;;14.18;7.43;;;1.00;94.10;;;;;;4986195;28;20038;-68
2021/11/10 04:29:54;;;;;;;11.70;6.75;;;1.00;94.20;;;;;;4986617;28;20321;-68
2021/11/10 04:32:20;;;;;;;13.48;6.68;;;0.90;94.40;;;;;;4997947;28;20030;-68
2021/11/10 04:34:46;;;;;;;11.20;6.60;;;0.90;94.60;;;;;;5005932;28;20358;-68
2021/11/10 04:37:14;;;;;;;10.77;7.00;;;0.90;94.70;;;;;;5005341;28;20046;-68
2021/11/10 04:39:41;;;;;;;13.80;7.15;;;0.90;94.70;;;;;;5005584;28;20325;-68
2021/11/10 04:42:08;;;;;;;11.70;7.22;;;1.00;94.60;;;;;;5003997;28;20093;-68
2021/11/10 04:44:34;;;;;;;12.10;6.32;;;1.00;94.60;;;;;;5005500;28;20030;-68
2021/11/10 04:47:00;;;;;;;15.82;6.95;;;1.10;94.50;;;;;;4987913;28;20029;-68
2021/11/10 04:49:29;;;;;;;15.75;9.10;;;1.10;94.20;;;;;;5005251;28;20026;-68
2021/11/10 04:52:00;;;;;;;14.25;7.82;;;1.10;94.20;;;;;;5004904;28;20021;-68
2021/11/10 04:54:32;;;;;;;14.15;8.18;;;1.00;94.30;;;;;;4988709;28;20261;-68
2021/11/10 04:56:59;;;;;;;15.15;9.13;;;1.00;94.40;;;;;;5005613;28;20230;-68
2021/11/10 04:59:25;;;;;;;13.30;8.13;;;0.90;94.20;;;;;;5003784;28;20092;-68
2021/11/10 05:02:36;;;;;;;13.13;7.47;;;1.00;94.30;;;;;;5004706;28;20332;-68
2021/11/10 05:04:39;;;;;;;12.48;7.35;;;1.00;94.30;;;;;;4987447;28;20066;-68
2021/11/10 05:07:05;;;;;;;12.48;6.93;;;0.90;94.10;;;;;;5000599;28;20065;-68
2021/11/10 05:09:31;;;;;;;14.17;7.63;;;0.90;94.10;;;;;;4995272;28;20029;-68
2021/11/10 05:11:57;;;;;;;14.40;7.88;;;0.80;94.20;;;;;;5005030;28;20274;-68
2021/11/10 05:14:23;;;;;;;13.67;8.07;;;0.80;94.50;;;;;;5004432;28;20212;-68
2021/11/10 05:16:49;;;;;;;15.00;7.85;;;0.80;94.40;;;;;;4987900;28;20064;-68
2021/11/10 05:19:15;;;;;;;16.13;7.45;;;0.70;94.40;;;;;;5004419;28;20022;-68
2021/11/10 05:21:41;;;;;;;11.77;7.30;;;0.80;94.30;;;;;;5003419;28;20053;-68
2021/11/10 05:24:07;;;;;;;12.70;8.40;;;0.70;94.40;;;;;;5003179;28;20026;-68
2021/11/10 05:26:33;;;;;;;14.48;8.65;;;0.60;94.60;;;;;;5004526;28;20018;-69
2021/11/10 05:28:59;;;;;;;13.23;7.72;;;0.60;94.60;;;;;;5002687;28;20030;-69
2021/11/10 05:31:25;;;;;;;13.43;8.20;;;0.70;94.60;;;;;;5004219;28;20026;-69
2021/11/10 05:33:51;;;;;;;12.30;7.25;;;0.80;94.30;;;;;;5004478;28;20069;-68
2021/11/10 05:36:16;;;;;;;12.23;7.45;;;0.80;94.20;;;;;;5001275;28;20261;-68
2021/11/10 05:38:42;;;;;;;15.18;8.00;;;0.70;94.20;;;;;;5018569;28;20034;-68
2021/11/10 05:41:08;;;;;;;16.07;8.07;;;0.70;94.50;;;;;;5018248;28;20206;-68
2021/11/10 05:43:34;;;;;;;11.50;7.50;;;0.70;94.40;;;;;;5002467;28;20022;-68
2021/11/10 05:46:00;;;;;;;11.18;7.32;;;0.70;94.50;;;;;;5002813;28;20030;-68
2021/11/10 05:48:27;;;;;;;14.43;7.35;;;0.80;94.60;;;;;;5003711;28;20030;-69
2021/11/10 05:50:52;;;;;;;14.55;6.97;;;0.80;94.50;;;;;;4985229;28;20045;-68
2021/11/10 05:53:18;;;;;;;16.07;8.37;;;0.70;94.60;;;;;;5003539;28;20026;-68
2021/11/10 05:55:45;;;;;;;13.15;7.20;;;0.80;94.70;;;;;;5003041;28;20018;-68
2021/11/10 05:58:12;;;;;;;13.65;6.95;;;0.80;94.70;;;;;;5001615;28;20022;-67
2021/11/10 06:00:38;;;;;;;;;;;0.80;94.50;;;;;;5002364;28;20289;-68
2021/11/10 06:03:04;;;;;;;11.88;6.60;;;0.70;94.50;;;;;;5002417;28;19916;-67
2021/11/10 06:05:30;;;;;;;11.48;6.95;;;0.70;94.60;;;;;;5001962;28;20321;-68
2021/11/10 06:07:56;;;;;;;13.00;6.72;;;0.80;94.60;;;;;;5002378;28;20167;-68
2021/11/10 06:10:22;;;;;;;13.68;6.53;;;0.70;94.50;;;;;;4969726;28;20341;-69
2021/11/10 06:12:49;;;;;;;11.60;6.60;;;0.70;94.60;;;;;;5002067;28;20027;-68
2021/11/10 06:15:15;;;;;;;13.25;7.43;;;0.70;94.80;;;;;;5002122;28;20093;-69
2021/11/10 06:17:41;;;;;;;15.88;7.85;;;0.70;94.70;;;;;;4984687;28;20030;-68
2021/11/10 06:20:08;;;;;;;16.57;8.03;;;0.80;94.70;;;;;;5002803;28;20217;-68
2021/11/10 06:22:35;;;;;;;16.92;8.10;;;0.80;94.70;;;;;;5000737;28;20041;-66
2021/11/10 06:25:01;;;;;;;12.90;7.83;;;0.60;94.70;;;;;;5002752;28;20082;-68
2021/11/10 06:27:27;;;;;;;16.00;6.90;;;0.70;94.70;;;;;;5000589;28;20030;-68
2021/11/10 06:29:53;;;;;;;13.73;8.05;;;0.70;94.80;;;;;;5001547;28;20072;-68
2021/11/10 06:32:18;;;;;;;12.75;6.75;;;0.70;94.90;;;;;;5001645;28;20080;-68
2021/11/10 06:34:44;;;;;;;14.85;7.03;;;0.70;94.70;;;;;;5002639;28;20324;-68
2021/11/10 06:37:10;;;;;;;14.93;6.75;;;0.60;94.90;;;;;;5001341;28;20030;-68
2021/11/10 06:39:36;;;;;;;13.10;6.75;;;0.70;94.90;;;;;;5002427;28;20100;-68
2021/11/10 06:42:03;;;;;;;15.27;7.15;;;0.70;94.60;;;;;;5001476;28;20329;-68
2021/11/10 06:44:29;;;;;;;13.27;6.95;;;0.70;94.70;;;;;;5001250;28;20081;-68
2021/11/10 06:46:59;;;;;;;15.90;6.27;;;0.70;94.60;;;;;;5001364;28;20286;-69
2021/11/10 06:49:28;;;;;;;17.42;7.60;;;0.80;94.60;;;;;;5002032;28;20033;-68
2021/11/10 06:51:54;;;;;;;14.25;7.57;;;0.80;94.70;;;;;;4983896;28;20014;-67
2021/11/10 06:54:20;;;;;;;14.93;7.20;;;0.90;94.70;;;;;;4984935;28;20440;-68
2021/11/10 06:56:46;;;;;;;14.75;8.50;;;0.90;94.60;;;;;;5001608;28;20034;-67
2021/11/10 06:59:12;;;;;;;15.15;8.70;;;1.00;94.80;;;;;;5001053;28;20044;-68
2021/11/10 07:01:38;;;;;;;19.13;8.13;;;1.10;94.90;;;;;;5001274;28;20049;-68
2021/11/10 07:04:04;;;;;;;21.95;8.32;;;1.10;94.60;;;;;;5002370;28;20032;-68
2021/11/10 07:06:29;;;;;;;15.15;7.60;;;1.10;94.60;;;;;;5001144;28;20050;-68
2021/11/10 07:08:55;;;;;;;12.68;7.68;;;1.10;94.50;;;;;;5002098;28;20126;-68
2021/11/10 07:11:21;;;;;;;13.60;7.28;;;1.10;94.60;;;;;;4983182;28;20053;-67
2021/11/10 07:13:47;;;;;;;13.07;7.05;;;1.10;94.70;;;;;;5002109;28;20030;-68
2021/11/10 07:16:14;;;;;;;16.13;7.10;;;1.10;94.50;;;;;;5001391;28;20309;-68
2021/11/10 07:18:40;;;;;;;;;;;1.10;94.60;;;;;;4969065;28;20271;-68
2021/11/10 07:21:07;;;;;;;8.57;5.05;;;1.10;94.80;;;;;;5001127;28;19921;-68
2021/11/10 07:23:33;;;;;;;;;;;1.10;94.80;;;;;;5001105;28;20113;-67
2021/11/10 07:25:58;;;;;;;11.07;5.65;;;1.20;94.70;;;;;;5001493;28;19976;-67
2021/11/10 07:28:24;;;;;;;11.45;6.15;;;1.20;94.60;;;;;;5001625;28;20093;-67
2021/11/10 07:30:51;;;;;;;9.93;5.95;;;1.20;94.40;;;;;;5001154;28;20022;-68
2021/11/10 07:33:17;;;;;;;12.35;6.38;;;1.20;94.50;;;;;;4968896;28;20041;-67
2021/11/10 07:35:43;;;;;;;16.38;7.35;;;1.30;94.40;;;;;;5001001;28;20054;-67
2021/11/10 07:38:09;;;;;;;11.18;5.43;;;1.30;94.40;;;;;;4997352;28;20026;-68
2021/11/10 07:40:35;;;;;;;12.27;6.10;;;1.40;94.30;;;;;;4997123;28;20030;-67
2021/11/10 07:43:01;;;;;;;12.00;6.75;;;1.40;94.30;;;;;;4998015;28;20308;-67
2021/11/10 07:45:33;;;;;;;11.55;6.88;;;1.50;94.30;;;;;;5000350;28;20356;-67
2021/11/10 07:48:02;;;;;;;13.95;6.13;;;1.60;94.40;;;;;;4999927;28;20018;-67
2021/11/10 07:50:28;;;;;;;11.65;6.47;;;1.60;94.20;;;;;;4999419;28;20085;-67
2021/11/10 07:52:54;;;;;;;17.57;6.93;;;1.70;94.30;;;;;;4984158;28;20113;-67
2021/11/10 07:55:21;;;;;;;15.27;6.75;;;1.90;94.30;;;;;;5001457;28;20265;-67
2021/11/10 07:57:47;;;;;;;15.38;8.00;;;2.00;94.20;;;;;;5000122;28;20098;-67
2021/11/10 08:00:15;;;;;;;13.70;7.43;;;2.10;94.10;;;;;;5000680;28;20049;-67
2021/11/10 08:02:41;;;;;;;14.40;7.53;;;2.20;93.80;;;;;;5001053;28;20205;-67
2021/11/10 08:05:08;;;;;;;15.80;7.68;;;2.30;93.50;;;;;;5002279;28;20031;-67
2021/11/10 08:07:34;;;;;;;15.50;7.30;;;2.30;93.10;;;;;;5001234;28;20106;-68
2021/11/10 08:10:00;;;;;;;13.00;7.30;;;2.40;93.10;;;;;;5000228;28;20033;-67
2021/11/10 08:12:27;;;;;;;14.80;8.05;;;2.50;93.20;;;;;;4999711;28;20038;-68
2021/11/10 08:14:53;;;;;;;18.08;7.43;;;2.50;92.80;;;;;;5002132;28;20036;-67
2021/11/10 08:17:19;;;;;;;14.57;7.55;;;2.60;92.80;;;;;;5000926;28;20223;-67
2021/11/10 08:19:45;;;;;;;11.87;7.47;;;2.70;92.90;;;;;;5001970;28;20198;-68
2021/11/10 08:22:11;;;;;;;17.08;6.97;;;2.70;92.80;;;;;;4999924;28;20014;-67
2021/11/10 08:24:36;;;;;;;19.43;8.07;;;2.80;92.60;;;;;;4985535;28;20460;-67
2021/11/10 08:27:03;;;;;;;22.55;7.05;;;2.90;92.70;;;;;;5001447;28;20069;-67
2021/11/10 08:29:29;;;;;;;12.80;6.50;;;3.00;92.60;;;;;;4984695;28;20092;-68
2021/11/10 08:31:54;;;;;;;12.00;6.25;;;3.10;92.60;;;;;;5000663;28;20029;-67
2021/11/10 08:34:20;;;;;;;13.27;6.60;;;3.30;91.90;;;;;;5001301;28;20025;-67
2021/11/10 08:36:46;;;;;;;14.20;6.95;;;3.30;91.80;;;;;;4999846;28;20034;-68
2021/11/10 08:39:12;;;;;;;17.48;6.72;;;3.40;91.90;;;;;;5001264;28;20041;-68
2021/11/10 08:41:38;;;;;;;12.57;6.47;;;3.40;92.20;;;;;;5000395;28;20091;-68
2021/11/10 08:44:04;;;;;;;10.70;6.13;;;3.50;91.50;;;;;;5000045;28;20018;-68
2021/11/10 08:46:30;;;;;;;13.20;6.50;;;3.50;92.00;;;;;;5000877;28;20206;-68
2021/11/10 08:48:56;;;;;;;14.27;6.88;;;3.50;91.80;;;;;;5000562;28;20030;-68
2021/11/10 08:51:22;;;;;;;15.27;8.33;;;3.60;91.90;;;;;;4999524;28;20034;-67
2021/11/10 08:53:48;;;;;;;19.25;8.45;;;3.50;91.70;;;;;;4999891;28;20049;-68
2021/11/10 08:56:14;;;;;;;18.25;9.10;;;3.60;91.80;;;;;;5000373;28;20197;-68
2021/11/10 08:58:40;;;;;;;20.00;8.20;;;3.50;91.70;;;;;;4999471;28;20030;-68
2021/11/10 09:01:06;;;;;;;18.90;8.85;;;3.60;91.70;;;;;;5001387;28;20181;-68
2021/11/10 09:03:32;;;;;;;17.20;7.97;;;3.70;92.10;;;;;;5002144;28;20034;-68
2021/11/10 09:06:01;;;;;;;16.63;8.00;;;3.80;91.90;;;;;;5003626;28;20109;-68
2021/11/10 09:08:31;;;;;;;16.60;7.82;;;3.90;91.80;;;;;;5006053;28;20093;-68
2021/11/10 09:10:58;;;;;;;18.17;6.80;;;4.00;91.70;;;;;;4956171;28;20026;-68
2021/11/10 09:13:24;;;;;;;19.13;6.78;;;4.10;91.60;;;;;;5003636;28;20132;-68
2021/11/10 09:15:50;;;;;;;16.50;7.85;;;4.20;91.70;;;;;;5003062;28;20086;-68
2021/11/10 09:18:16;;;;;;;15.15;6.82;;;4.40;91.60;;;;;;5002309;28;20033;-68
2021/11/10 09:20:42;;;;;;;14.40;7.45;;;4.50;91.10;;;;;;5004387;28;20163;-68
2021/11/10 09:23:10;;;;;;;12.85;7.38;;;4.70;90.80;;;;;;5002471;28;20148;-68
2021/11/10 09:25:36;;;;;;;15.30;8.10;;;4.80;91.00;;;;;;4986863;28;20030;-68
2021/11/10 09:28:04;;;;;;;12.70;6.18;;;5.00;90.10;;;;;;5003073;28;20026;-68
2021/11/10 09:30:30;;;;;;;14.60;6.75;;;5.20;89.50;;;;;;5002672;28;20092;-68
2021/11/10 09:32:57;;;;;;;13.10;6.30;;;5.30;90.10;;;;;;5002126;28;20124;-68
2021/11/10 09:35:23;;;;;;;11.70;5.18;;;5.40;89.10;;;;;;5004046;28;20033;-68
2021/11/10 09:37:52;;;;;;;15.20;6.07;;;5.60;88.70;;;;;;4985421;28;20034;-68
2021/11/10 09:40:19;;;;;;;11.85;6.28;;;5.80;88.80;;;;;;5003779;28;20030;-68
2021/11/10 09:42:45;;;;;;;11.13;6.20;;;5.90;86.80;;;;;;5001675;28;20026;-68
2021/11/10 09:45:15;;;;;;;12.32;5.90;;;6.10;85.80;;;;;;5002838;28;20304;-68
2021/11/10 09:47:50;;;;;;;11.43;5.35;;;6.10;86.50;;;;;;5001549;28;20339;-68
2021/11/10 09:50:20;;;;;;;12.75;5.85;;;6.40;86.00;;;;;;4986478;28;20022;-68
2021/11/10 09:52:47;;;;;;;9.80;5.10;;;6.60;83.80;;;;;;5001556;28;20134;-68
2021/11/10 09:55:14;;;;;;;9.60;6.07;;;6.70;83.30;;;;;;5003715;28;20037;-68
2021/11/10 09:57:40;;;;;;;10.10;5.22;;;6.70;84.10;;;;;;5001208;28;20085;-68
2021/11/10 10:00:13;;;;;;;11.23;5.75;;;6.80;83.70;;;;;;4986120;28;20034;-68
2021/11/10 10:02:41;;;;;;;11.18;6.03;;;7.00;82.40;;;;;;4985252;28;20053;-68
2021/11/10 10:05:07;;;;;;;13.05;5.97;;;7.30;80.90;;;;;;4970171;28;20044;-68
2021/11/10 10:07:34;;;;;;;9.50;5.22;;;7.50;81.80;;;;;;5001127;28;20026;-68
2021/11/10 10:09:59;;;;;;;9.73;5.00;;;7.70;82.30;;;;;;4985075;28;20085;-68
2021/11/10 10:12:25;;;;;;;12.70;6.63;;;8.00;78.30;;;;;;5003036;28;20029;-69
2021/11/10 10:14:54;;;;;;;10.43;6.18;;;8.30;80.50;;;;;;5002260;28;20026;-68
2021/11/10 10:17:42;;;;;;;11.98;5.95;;;8.50;78.40;;;;;;4986048;28;20046;-68
2021/11/10 10:20:36;;;;;;;10.32;5.47;;;8.90;77.60;;;;;;5001801;28;20034;-69
2021/11/10 10:23:11;;;;;;;10.48;5.43;;;9.20;72.60;;;;;;4970513;28;20057;-68
2021/11/10 10:25:49;;;;;;;12.85;6.13;;;9.50;71.20;;;;;;5002072;28;20535;-69
2021/11/10 10:28:24;;;;;;;11.90;6.13;;;9.50;73.40;;;;;;4969774;28;20041;-68
2021/11/10 10:30:53;;;;;;;14.52;5.90;;;9.70;72.20;;;;;;4986323;28;20024;-68
2021/11/10 10:33:25;;;;;;;11.32;6.75;;;10.00;70.20;;;;;;4969547;28;20064;-68
2021/11/10 10:36:07;;;;;;;16.48;7.05;;;9.80;71.60;;;;;;5002166;28;20038;-69
2021/11/10 10:38:42;;;;;;;12.05;6.53;;;10.30;71.60;;;;;;4985720;28;20053;-68
2021/11/10 10:41:08;;;;;;;12.27;6.53;;;11.10;68.00;;;;;;5001333;28;20121;-69
2021/11/10 10:43:49;;;;;;;12.45;5.95;;;11.60;62.10;;;;;;5001976;28;20190;-68
2021/11/10 10:46:16;;;;;;;11.10;6.30;;;12.40;58.70;;;;;;5001709;28;20384;-69
2021/11/10 10:48:42;;;;;;;11.48;6.13;;;12.60;58.40;;;;;;4985374;28;20347;-68
2021/11/10 10:51:14;;;;;;;11.43;6.93;;;13.00;56.20;;;;;;5002225;28;20022;-69
2021/11/10 10:53:45;;;;;;;11.60;6.88;;;13.90;54.20;;;;;;5001602;28;20090;-69
2021/11/10 10:56:26;;;;;;;13.43;7.63;;;13.50;55.00;;;;;;5001197;28;20448;-68
2021/11/10 10:59:07;;;;;;;12.32;7.50;;;13.60;54.20;;;;;;5002099;28;20362;-69
2021/11/10 11:01:35;;;;;;;11.15;7.47;;;14.60;50.40;;;;;;5000822;28;20220;-69
2021/11/10 11:04:15;;;;;;;12.35;7.63;;;14.20;50.90;;;;;;5002107;28;20022;-69
2021/11/10 11:06:43;;;;;;;14.20;7.80;;;14.10;50.90;;;;;;5000859;28;20054;-69
2021/11/10 11:09:28;;;;;;;12.68;8.15;;;13.40;52.50;;;;;;5002010;28;20022;-69
2021/11/10 11:12:12;;;;;;;12.68;9.02;;;13.60;53.30;;;;;;5000692;28;20323;-68
2021/11/10 11:17:19;;;;;;;18.42;8.40;;;12.70;55.00;;;;;;4985724;28;20018;-69
2021/11/10 11:20:15;;;;;;;15.48;9.57;;;12.20;56.30;;;;;;5001978;28;20081;-68
2021/11/10 11:22:41;;;;;;;13.82;8.85;;;11.70;58.00;;;;;;4998100;28;20065;-68
2021/11/10 11:25:20;;;;;;;16.88;9.73;;;11.80;57.50;;;;;;5001432;28;20241;-68
2021/11/10 11:28:03;;;;;;;17.30;9.20;;;11.50;58.30;;;;;;5000519;28;20176;-68
2021/11/10 11:30:56;;;;;;;14.85;8.98;;;10.90;60.40;;;;;;4984266;28;20018;-68
2021/11/10 11:33:22;;;;;;;15.10;8.77;;;10.10;62.60;;;;;;5000641;28;20113;-68
2021/11/10 11:35:59;;;;;;;16.42;9.32;;;9.80;65.90;;;;;;5000704;28;20014;-68
2021/11/10 11:38:28;;;;;;;17.77;9.65;;;9.70;65.60;;;;;;5000474;28;20178;-68
2021/11/10 11:40:56;;;;;;;17.73;9.70;;;9.80;66.10;;;;;;5000352;28;20057;-68
2021/11/10 11:43:25;;;;;;;18.75;9.85;;;10.70;63.10;;;;;;5000353;28;20030;-68
2021/11/10 11:45:53;;;;;;;13.07;8.80;;;11.50;60.30;;;;;;5000574;28;20030;-68
2021/11/10 11:48:20;;;;;;;17.50;8.98;;;11.80;58.10;;;;;;5001872;28;20197;-68
2021/11/10 11:50:47;;;;;;;;;;;12.00;58.80;;;;;;5001906;28;20081;-68
2021/11/10 11:53:13;;;;;;;15.85;9.00;;;11.90;58.50;;;;;;5000448;28;19928;-68
2021/11/10 11:55:45;;;;;;;14.43;8.83;;;11.60;59.60;;;;;;5001612;28;20027;-68
2021/11/10 11:58:35;;;;;;;15.40;9.73;;;11.30;61.40;;;;;;4969216;28;20341;-68
2021/11/10 12:01:08;;;;;;;15.88;9.35;;;11.70;59.70;;;;;;4970457;28;20083;-68
2021/11/10 12:03:36;;;;;;;16.20;9.32;;;12.20;57.90;;;;;;5001664;28;20045;-68
2021/11/10 12:06:05;;;;;;;14.80;9.57;;;12.30;57.70;;;;;;5000388;28;20034;-68
2021/11/10 12:08:43;;;;;;;16.02;9.68;;;12.30;57.50;;;;;;5001459;28;20030;-68
2021/11/10 12:11:40;;;;;;;16.00;8.93;;;11.70;58.50;;;;;;5001221;28;20025;-69
2021/11/10 12:14:31;;;;;;;16.38;10.18;;;11.00;61.40;;;;;;5000994;28;20027;-69
2021/11/10 12:17:13;;;;;;;19.15;10.70;;;10.80;63.10;;;;;;5001271;28;20236;-69
2021/11/10 12:19:41;;;;;;;17.27;9.98;;;10.60;63.80;;;;;;5001267;28;20037;-68
2021/11/10 12:22:18;;;;;;;15.95;9.48;;;10.40;64.20;;;;;;5000969;28;20026;-68
2021/11/10 12:24:54;;;;;;;17.90;10.07;;;10.10;66.10;;;;;;5001793;28;20022;-68
2021/11/10 12:27:32;;;;;;;21.17;10.75;;;9.90;67.00;;;;;;5001130;28;20383;-68
2021/11/10 12:30:19;;;;;;;18.20;9.50;;;9.60;68.40;;;;;;5000928;28;20385;-68
2021/11/10 12:33:09;;;;;;;21.60;10.68;;;9.30;69.90;;;;;;5001012;28;20282;-68
2021/11/10 12:35:39;;;;;;;20.13;10.40;;;9.40;70.50;;;;;;5000206;28;20041;-68
2021/11/10 12:38:23;;;;;;;19.70;10.75;;;9.40;69.90;;;;;;5003879;28;20080;-68
2021/11/10 12:41:03;;;;;;;20.08;10.05;;;9.60;69.30;;;;;;5004760;28;20018;-68
2021/11/10 12:43:40;;;;;;;18.35;10.07;;;9.90;68.80;;;;;;5003359;28;20038;-68
2021/11/10 12:46:17;;;;;;;22.23;11.75;;;10.50;66.50;;;;;;5005131;28;20065;-68
2021/11/10 12:48:44;;;;;;;;;;;11.60;61.70;;;;;;5004972;28;20325;-68
2021/11/10 12:51:28;;;;;;;16.40;10.07;;;12.30;59.30;;;;;;5004483;28;20436;-68
2021/11/10 12:53:58;;;;;;;22.23;11.60;;;13.20;56.40;;;;;;5004904;28;20101;-68
2021/11/10 12:56:48;;;;;;;17.92;9.23;;;13.20;55.90;;;;;;5003455;28;20034;-68
2021/11/10 12:59:21;;;;;;;19.25;10.45;;;13.50;54.10;;;;;;5003216;28;20032;-68